sensor_id;sensor_type;location;lat;lon;timestamp;P1;durP1;ratioP1;P2;durP2;ratioP2
31836;SDS011;18401;49.344;6.240;2022-12-18T00:01:50;76.10;;;26.40;;
31836;SDS011;18401;49.344;6.240;2022-12-18T00:04:18;42.92;;;16.65;;
31836;SDS011;18401;49.344;6.240;2022-12-18T00:06:47;48.50;;;17.77;;
31836;SDS011;18401;49.344;6.240;2022-12-18T00:09:12;42.17;;;17.02;;
31836;SDS011;18401;49.344;6.240;2022-12-18T00:11:38;41.20;;;16.33;;
31836;SDS011;18401;49.344;6.240;2022-12-18T00:14:04;39.67;;;15.35;;
31836;SDS011;18401;49.344;6.240;2022-12-18T00:16:29;42.45;;;15.82;;
31836;SDS011;18401;49.344;6.240;2022-12-18T00:18:58;48.97;;;18.92;;
31836;SDS011;18401;49.344;6.240;2022-12-18T00:21:25;45.63;;;13.93;;
31836;SDS011;18401;49.344;6.240;2022-12-18T00:23:51;33.78;;;13.73;;
31836;SDS011;18401;49.344;6.240;2022-12-18T00:26:18;43.92;;;16.13;;
31836;SDS011;18401;49.344;6.240;2022-12-18T00:28:46;40.38;;;15.13;;
31836;SDS011;18401;49.344;6.240;2022-12-18T00:31:13;49.72;;;17.40;;
31836;SDS011;18401;49.344;6.240;2022-12-18T00:33:43;33.92;;;14.57;;
31836;SDS011;18401;49.344;6.240;2022-12-18T00:36:10;46.55;;;17.15;;
31836;SDS011;18401;49.344;6.240;2022-12-18T00:38:38;40.47;;;15.90;;
31836;SDS011;18401;49.344;6.240;2022-12-18T00:41:04;40.55;;;15.55;;
31836;SDS011;18401;49.344;6.240;2022-12-18T00:43:34;45.55;;;16.15;;
31836;SDS011;18401;49.344;6.240;2022-12-18T00:46:00;33.20;;;14.32;;
31836;SDS011;18401;49.344;6.240;2022-12-18T00:48:26;44.67;;;17.85;;
31836;SDS011;18401;49.344;6.240;2022-12-18T00:50:52;73.78;;;26.67;;
31836;SDS011;18401;49.344;6.240;2022-12-18T00:53:18;47.80;;;17.60;;
31836;SDS011;18401;49.344;6.240;2022-12-18T00:55:43;40.00;;;16.15;;
31836;SDS011;18401;49.344;6.240;2022-12-18T00:58:10;44.72;;;15.48;;
31836;SDS011;18401;49.344;6.240;2022-12-18T01:00:36;45.58;;;17.27;;
31836;SDS011;18401;49.344;6.240;2022-12-18T01:03:03;39.92;;;17.98;;
31836;SDS011;18401;49.344;6.240;2022-12-18T01:05:29;36.75;;;14.82;;
31836;SDS011;18401;49.344;6.240;2022-12-18T01:07:55;37.55;;;15.85;;
31836;SDS011;18401;49.344;6.240;2022-12-18T01:10:22;37.67;;;16.40;;
31836;SDS011;18401;49.344;6.240;2022-12-18T01:12:47;37.45;;;15.77;;
31836;SDS011;18401;49.344;6.240;2022-12-18T01:15:14;49.85;;;17.85;;
31836;SDS011;18401;49.344;6.240;2022-12-18T01:17:40;42.88;;;14.70;;
31836;SDS011;18401;49.344;6.240;2022-12-18T01:20:06;40.55;;;14.52;;
31836;SDS011;18401;49.344;6.240;2022-12-18T01:22:33;40.90;;;15.07;;
31836;SDS011;18401;49.344;6.240;2022-12-18T01:24:59;34.35;;;14.38;;
31836;SDS011;18401;49.344;6.240;2022-12-18T01:27:25;35.85;;;14.32;;
31836;SDS011;18401;49.344;6.240;2022-12-18T01:29:51;40.53;;;15.77;;
31836;SDS011;18401;49.344;6.240;2022-12-18T01:32:17;35.58;;;15.10;;
31836;SDS011;18401;49.344;6.240;2022-12-18T01:34:42;46.42;;;18.45;;
31836;SDS011;18401;49.344;6.240;2022-12-18T01:37:08;42.25;;;14.45;;
31836;SDS011;18401;49.344;6.240;2022-12-18T01:39:34;29.90;;;12.80;;
31836;SDS011;18401;49.344;6.240;2022-12-18T01:42:00;29.52;;;12.07;;
31836;SDS011;18401;49.344;6.240;2022-12-18T01:47:16;36.28;;;13.45;;
31836;SDS011;18401;49.344;6.240;2022-12-18T01:49:49;28.30;;;12.60;;
31836;SDS011;18401;49.344;6.240;2022-12-18T01:52:15;31.10;;;12.75;;
31836;SDS011;18401;49.344;6.240;2022-12-18T01:54:42;38.72;;;13.82;;
31836;SDS011;18401;49.344;6.240;2022-12-18T01:57:08;33.38;;;13.38;;
31836;SDS011;18401;49.344;6.240;2022-12-18T01:59:34;35.53;;;13.20;;
31836;SDS011;18401;49.344;6.240;2022-12-18T02:02:00;32.45;;;12.68;;
31836;SDS011;18401;49.344;6.240;2022-12-18T02:04:27;37.53;;;12.50;;
31836;SDS011;18401;49.344;6.240;2022-12-18T02:09:46;35.08;;;12.93;;
31836;SDS011;18401;49.344;6.240;2022-12-18T02:12:21;27.50;;;12.10;;
31836;SDS011;18401;49.344;6.240;2022-12-18T02:17:30;42.40;;;12.57;;
31836;SDS011;18401;49.344;6.240;2022-12-18T02:20:18;31.50;;;12.30;;
31836;SDS011;18401;49.344;6.240;2022-12-18T02:28:08;23.80;;;11.32;;
31836;SDS011;18401;49.344;6.240;2022-12-18T02:30:37;36.92;;;15.50;;
31836;SDS011;18401;49.344;6.240;2022-12-18T02:33:04;40.25;;;15.10;;
31836;SDS011;18401;49.344;6.240;2022-12-18T02:35:33;32.75;;;12.88;;
31836;SDS011;18401;49.344;6.240;2022-12-18T02:38:01;33.63;;;13.32;;
31836;SDS011;18401;49.344;6.240;2022-12-18T02:40:29;42.22;;;15.57;;
31836;SDS011;18401;49.344;6.240;2022-12-18T02:42:55;41.72;;;15.50;;
31836;SDS011;18401;49.344;6.240;2022-12-18T02:45:28;41.35;;;16.33;;
31836;SDS011;18401;49.344;6.240;2022-12-18T02:47:53;39.65;;;14.77;;
31836;SDS011;18401;49.344;6.240;2022-12-18T02:50:25;33.92;;;13.32;;
31836;SDS011;18401;49.344;6.240;2022-12-18T02:56:29;38.08;;;15.48;;
31836;SDS011;18401;49.344;6.240;2022-12-18T03:06:49;40.42;;;16.38;;
31836;SDS011;18401;49.344;6.240;2022-12-18T03:09:41;34.33;;;13.55;;
31836;SDS011;18401;49.344;6.240;2022-12-18T03:12:17;36.47;;;13.68;;
31836;SDS011;18401;49.344;6.240;2022-12-18T03:15:08;41.45;;;14.85;;
31836;SDS011;18401;49.344;6.240;2022-12-18T03:18:06;33.85;;;14.48;;
31836;SDS011;18401;49.344;6.240;2022-12-18T03:20:38;42.75;;;15.23;;
31836;SDS011;18401;49.344;6.240;2022-12-18T03:23:12;32.67;;;14.23;;
31836;SDS011;18401;49.344;6.240;2022-12-18T03:25:41;32.30;;;11.95;;
31836;SDS011;18401;49.344;6.240;2022-12-18T03:28:16;38.00;;;16.58;;
31836;SDS011;18401;49.344;6.240;2022-12-18T03:30:46;30.02;;;13.77;;
31836;SDS011;18401;49.344;6.240;2022-12-18T03:35:56;33.72;;;13.02;;
31836;SDS011;18401;49.344;6.240;2022-12-18T03:38:22;38.85;;;15.65;;
31836;SDS011;18401;49.344;6.240;2022-12-18T03:41:34;36.70;;;15.90;;
31836;SDS011;18401;49.344;6.240;2022-12-18T03:43:57;38.60;;;14.43;;
31836;SDS011;18401;49.344;6.240;2022-12-18T03:49:08;29.30;;;11.80;;
31836;SDS011;18401;49.344;6.240;2022-12-18T03:54:15;30.77;;;13.05;;
31836;SDS011;18401;49.344;6.240;2022-12-18T03:56:44;31.65;;;13.48;;
31836;SDS011;18401;49.344;6.240;2022-12-18T03:59:12;32.67;;;13.07;;
31836;SDS011;18401;49.344;6.240;2022-12-18T04:01:41;36.17;;;13.23;;
31836;SDS011;18401;49.344;6.240;2022-12-18T04:04:11;39.55;;;15.02;;
31836;SDS011;18401;49.344;6.240;2022-12-18T04:06:39;33.60;;;12.45;;
31836;SDS011;18401;49.344;6.240;2022-12-18T04:09:06;30.63;;;12.45;;
31836;SDS011;18401;49.344;6.240;2022-12-18T04:11:32;35.83;;;13.73;;
31836;SDS011;18401;49.344;6.240;2022-12-18T04:13:58;27.35;;;11.65;;
31836;SDS011;18401;49.344;6.240;2022-12-18T04:16:25;38.55;;;13.73;;
31836;SDS011;18401;49.344;6.240;2022-12-18T04:18:51;30.05;;;12.30;;
31836;SDS011;18401;49.344;6.240;2022-12-18T04:21:17;31.48;;;12.63;;
31836;SDS011;18401;49.344;6.240;2022-12-18T04:23:44;30.90;;;13.32;;
31836;SDS011;18401;49.344;6.240;2022-12-18T04:26:09;35.38;;;13.88;;
31836;SDS011;18401;49.344;6.240;2022-12-18T04:28:35;35.85;;;13.98;;
31836;SDS011;18401;49.344;6.240;2022-12-18T04:31:01;34.58;;;15.07;;
31836;SDS011;18401;49.344;6.240;2022-12-18T04:33:27;39.20;;;14.68;;
31836;SDS011;18401;49.344;6.240;2022-12-18T04:35:53;33.75;;;14.73;;
31836;SDS011;18401;49.344;6.240;2022-12-18T04:38:18;33.00;;;12.60;;
31836;SDS011;18401;49.344;6.240;2022-12-18T04:40:44;40.05;;;15.93;;
31836;SDS011;18401;49.344;6.240;2022-12-18T04:43:10;44.28;;;15.63;;
31836;SDS011;18401;49.344;6.240;2022-12-18T04:45:35;41.88;;;14.98;;
31836;SDS011;18401;49.344;6.240;2022-12-18T04:48:01;33.38;;;14.50;;
31836;SDS011;18401;49.344;6.240;2022-12-18T04:50:27;41.08;;;15.32;;
31836;SDS011;18401;49.344;6.240;2022-12-18T04:52:53;37.35;;;13.57;;
31836;SDS011;18401;49.344;6.240;2022-12-18T04:55:20;29.33;;;11.52;;
31836;SDS011;18401;49.344;6.240;2022-12-18T04:57:46;27.77;;;10.02;;
31836;SDS011;18401;49.344;6.240;2022-12-18T05:00:12;40.67;;;13.68;;
31836;SDS011;18401;49.344;6.240;2022-12-18T05:02:38;30.13;;;11.68;;
31836;SDS011;18401;49.344;6.240;2022-12-18T05:05:04;27.35;;;13.38;;
31836;SDS011;18401;49.344;6.240;2022-12-18T05:07:30;32.97;;;12.20;;
31836;SDS011;18401;49.344;6.240;2022-12-18T05:09:56;50.55;;;13.68;;
31836;SDS011;18401;49.344;6.240;2022-12-18T05:12:24;36.15;;;14.88;;
31836;SDS011;18401;49.344;6.240;2022-12-18T05:14:50;25.38;;;12.00;;
31836;SDS011;18401;49.344;6.240;2022-12-18T05:17:15;36.47;;;13.60;;
31836;SDS011;18401;49.344;6.240;2022-12-18T05:19:41;26.77;;;12.10;;
31836;SDS011;18401;49.344;6.240;2022-12-18T05:22:07;34.95;;;13.25;;
31836;SDS011;18401;49.344;6.240;2022-12-18T05:24:33;34.60;;;14.15;;
31836;SDS011;18401;49.344;6.240;2022-12-18T05:26:59;32.65;;;13.88;;
31836;SDS011;18401;49.344;6.240;2022-12-18T05:29:24;27.10;;;12.65;;
31836;SDS011;18401;49.344;6.240;2022-12-18T05:31:50;31.45;;;13.10;;
31836;SDS011;18401;49.344;6.240;2022-12-18T05:34:16;31.55;;;14.90;;
31836;SDS011;18401;49.344;6.240;2022-12-18T05:36:41;41.42;;;14.10;;
31836;SDS011;18401;49.344;6.240;2022-12-18T05:39:07;34.90;;;13.55;;
31836;SDS011;18401;49.344;6.240;2022-12-18T05:41:33;32.78;;;12.43;;
31836;SDS011;18401;49.344;6.240;2022-12-18T05:43:59;31.40;;;13.63;;
31836;SDS011;18401;49.344;6.240;2022-12-18T05:46:24;28.33;;;11.77;;
31836;SDS011;18401;49.344;6.240;2022-12-18T05:48:50;27.48;;;13.80;;
31836;SDS011;18401;49.344;6.240;2022-12-18T05:51:18;31.75;;;13.75;;
31836;SDS011;18401;49.344;6.240;2022-12-18T05:53:45;23.15;;;12.70;;
31836;SDS011;18401;49.344;6.240;2022-12-18T05:56:13;32.72;;;14.60;;
31836;SDS011;18401;49.344;6.240;2022-12-18T05:58:40;24.00;;;11.32;;
31836;SDS011;18401;49.344;6.240;2022-12-18T06:01:11;36.20;;;11.00;;
31836;SDS011;18401;49.344;6.240;2022-12-18T06:03:38;27.67;;;10.43;;
31836;SDS011;18401;49.344;6.240;2022-12-18T06:06:11;30.08;;;11.35;;
31836;SDS011;18401;49.344;6.240;2022-12-18T06:08:44;29.45;;;12.40;;
31836;SDS011;18401;49.344;6.240;2022-12-18T06:11:10;36.95;;;13.02;;
31836;SDS011;18401;49.344;6.240;2022-12-18T06:13:36;27.15;;;12.95;;
31836;SDS011;18401;49.344;6.240;2022-12-18T06:16:05;30.48;;;12.40;;
31836;SDS011;18401;49.344;6.240;2022-12-18T06:18:32;33.00;;;13.80;;
31836;SDS011;18401;49.344;6.240;2022-12-18T06:20:58;46.50;;;14.27;;
31836;SDS011;18401;49.344;6.240;2022-12-18T06:23:24;26.25;;;12.43;;
31836;SDS011;18401;49.344;6.240;2022-12-18T06:25:50;23.38;;;11.77;;
31836;SDS011;18401;49.344;6.240;2022-12-18T06:28:17;30.20;;;13.20;;
31836;SDS011;18401;49.344;6.240;2022-12-18T06:30:43;32.00;;;13.50;;
31836;SDS011;18401;49.344;6.240;2022-12-18T06:33:10;30.92;;;13.40;;
31836;SDS011;18401;49.344;6.240;2022-12-18T06:35:35;40.30;;;14.98;;
31836;SDS011;18401;49.344;6.240;2022-12-18T06:38:02;35.17;;;12.98;;
31836;SDS011;18401;49.344;6.240;2022-12-18T06:40:28;43.30;;;15.50;;
31836;SDS011;18401;49.344;6.240;2022-12-18T06:42:53;34.80;;;14.07;;
31836;SDS011;18401;49.344;6.240;2022-12-18T06:45:19;35.05;;;14.80;;
31836;SDS011;18401;49.344;6.240;2022-12-18T06:47:45;30.00;;;14.35;;
31836;SDS011;18401;49.344;6.240;2022-12-18T06:50:11;39.53;;;15.23;;
31836;SDS011;18401;49.344;6.240;2022-12-18T06:52:37;33.75;;;13.45;;
31836;SDS011;18401;49.344;6.240;2022-12-18T06:55:10;42.88;;;14.68;;
31836;SDS011;18401;49.344;6.240;2022-12-18T06:57:36;32.60;;;14.73;;
31836;SDS011;18401;49.344;6.240;2022-12-18T07:00:03;39.70;;;16.23;;
31836;SDS011;18401;49.344;6.240;2022-12-18T07:02:30;36.45;;;14.30;;
31836;SDS011;18401;49.344;6.240;2022-12-18T07:04:55;37.70;;;15.95;;
31836;SDS011;18401;49.344;6.240;2022-12-18T07:07:21;39.95;;;14.88;;
31836;SDS011;18401;49.344;6.240;2022-12-18T07:09:48;40.13;;;15.35;;
31836;SDS011;18401;49.344;6.240;2022-12-18T07:12:14;35.30;;;15.20;;
31836;SDS011;18401;49.344;6.240;2022-12-18T07:14:40;42.88;;;15.98;;
31836;SDS011;18401;49.344;6.240;2022-12-18T07:17:06;33.17;;;13.02;;
31836;SDS011;18401;49.344;6.240;2022-12-18T07:19:32;38.25;;;15.13;;
31836;SDS011;18401;49.344;6.240;2022-12-18T07:21:58;42.05;;;15.18;;
31836;SDS011;18401;49.344;6.240;2022-12-18T07:24:23;51.28;;;17.85;;
31836;SDS011;18401;49.344;6.240;2022-12-18T07:26:49;32.92;;;14.60;;
31836;SDS011;18401;49.344;6.240;2022-12-18T07:29:15;43.42;;;17.30;;
31836;SDS011;18401;49.344;6.240;2022-12-18T07:31:41;53.22;;;23.35;;
31836;SDS011;18401;49.344;6.240;2022-12-18T07:34:09;53.10;;;20.27;;
31836;SDS011;18401;49.344;6.240;2022-12-18T07:36:36;50.55;;;18.55;;
31836;SDS011;18401;49.344;6.240;2022-12-18T07:39:02;44.90;;;16.95;;
31836;SDS011;18401;49.344;6.240;2022-12-18T07:41:28;50.05;;;18.23;;
31836;SDS011;18401;49.344;6.240;2022-12-18T07:43:53;44.45;;;18.35;;
31836;SDS011;18401;49.344;6.240;2022-12-18T07:46:19;71.22;;;27.45;;
31836;SDS011;18401;49.344;6.240;2022-12-18T07:48:45;68.32;;;22.83;;
31836;SDS011;18401;49.344;6.240;2022-12-18T07:51:11;50.58;;;20.35;;
31836;SDS011;18401;49.344;6.240;2022-12-18T07:53:37;68.85;;;24.35;;
31836;SDS011;18401;49.344;6.240;2022-12-18T07:56:04;62.75;;;22.55;;
31836;SDS011;18401;49.344;6.240;2022-12-18T07:58:31;63.92;;;24.20;;
31836;SDS011;18401;49.344;6.240;2022-12-18T08:01:04;64.57;;;21.92;;
31836;SDS011;18401;49.344;6.240;2022-12-18T08:03:34;79.15;;;27.08;;
31836;SDS011;18401;49.344;6.240;2022-12-18T08:06:01;66.47;;;24.83;;
31836;SDS011;18401;49.344;6.240;2022-12-18T08:08:27;72.60;;;25.67;;
31836;SDS011;18401;49.344;6.240;2022-12-18T08:10:54;87.18;;;28.58;;
31836;SDS011;18401;49.344;6.240;2022-12-18T08:13:20;82.28;;;27.52;;
31836;SDS011;18401;49.344;6.240;2022-12-18T08:15:45;90.70;;;28.98;;
31836;SDS011;18401;49.344;6.240;2022-12-18T08:18:11;73.00;;;26.80;;
31836;SDS011;18401;49.344;6.240;2022-12-18T08:20:37;105.78;;;34.03;;
31836;SDS011;18401;49.344;6.240;2022-12-18T08:23:03;81.88;;;30.23;;
31836;SDS011;18401;49.344;6.240;2022-12-18T08:25:28;81.35;;;28.80;;
31836;SDS011;18401;49.344;6.240;2022-12-18T08:27:54;85.32;;;28.73;;
31836;SDS011;18401;49.344;6.240;2022-12-18T08:30:21;81.85;;;28.73;;
31836;SDS011;18401;49.344;6.240;2022-12-18T08:32:47;89.22;;;31.83;;
31836;SDS011;18401;49.344;6.240;2022-12-18T08:35:17;93.43;;;31.17;;
31836;SDS011;18401;49.344;6.240;2022-12-18T08:37:43;86.93;;;30.92;;
31836;SDS011;18401;49.344;6.240;2022-12-18T08:40:09;82.20;;;29.92;;
31836;SDS011;18401;49.344;6.240;2022-12-18T08:42:35;76.47;;;30.10;;
31836;SDS011;18401;49.344;6.240;2022-12-18T08:45:19;91.85;;;31.75;;
31836;SDS011;18401;49.344;6.240;2022-12-18T08:47:44;92.03;;;32.17;;
31836;SDS011;18401;49.344;6.240;2022-12-18T08:50:11;93.22;;;31.60;;
31836;SDS011;18401;49.344;6.240;2022-12-18T08:52:37;87.35;;;31.00;;
31836;SDS011;18401;49.344;6.240;2022-12-18T08:55:03;89.40;;;29.80;;
31836;SDS011;18401;49.344;6.240;2022-12-18T08:57:29;93.03;;;33.22;;
31836;SDS011;18401;49.344;6.240;2022-12-18T08:59:54;89.82;;;31.83;;
31836;SDS011;18401;49.344;6.240;2022-12-18T09:02:20;91.07;;;32.40;;
31836;SDS011;18401;49.344;6.240;2022-12-18T09:04:46;95.95;;;34.92;;
31836;SDS011;18401;49.344;6.240;2022-12-18T09:07:12;88.07;;;29.23;;
31836;SDS011;18401;49.344;6.240;2022-12-18T09:09:38;82.40;;;30.40;;
31836;SDS011;18401;49.344;6.240;2022-12-18T09:12:04;82.45;;;30.70;;
31836;SDS011;18401;49.344;6.240;2022-12-18T09:14:29;85.50;;;30.08;;
31836;SDS011;18401;49.344;6.240;2022-12-18T09:16:55;93.97;;;28.85;;
31836;SDS011;18401;49.344;6.240;2022-12-18T09:19:21;86.00;;;31.05;;
31836;SDS011;18401;49.344;6.240;2022-12-18T09:21:46;91.75;;;29.38;;
31836;SDS011;18401;49.344;6.240;2022-12-18T09:24:12;85.28;;;30.73;;
31836;SDS011;18401;49.344;6.240;2022-12-18T09:26:41;85.72;;;30.90;;
31836;SDS011;18401;49.344;6.240;2022-12-18T09:29:07;94.07;;;30.60;;
31836;SDS011;18401;49.344;6.240;2022-12-18T09:31:34;85.72;;;29.77;;
31836;SDS011;18401;49.344;6.240;2022-12-18T09:34:00;86.40;;;33.33;;
31836;SDS011;18401;49.344;6.240;2022-12-18T09:36:26;80.80;;;28.80;;
31836;SDS011;18401;49.344;6.240;2022-12-18T09:38:51;94.75;;;32.00;;
31836;SDS011;18401;49.344;6.240;2022-12-18T09:44:00;88.50;;;29.63;;
31836;SDS011;18401;49.344;6.240;2022-12-18T09:46:31;85.35;;;27.67;;
31836;SDS011;18401;49.344;6.240;2022-12-18T09:49:00;86.85;;;28.65;;
31836;SDS011;18401;49.344;6.240;2022-12-18T09:51:42;92.78;;;30.40;;
31836;SDS011;18401;49.344;6.240;2022-12-18T09:54:23;93.57;;;30.17;;
31836;SDS011;18401;49.344;6.240;2022-12-18T09:56:56;95.50;;;30.15;;
31836;SDS011;18401;49.344;6.240;2022-12-18T09:59:24;103.13;;;32.45;;
31836;SDS011;18401;49.344;6.240;2022-12-18T10:01:57;83.97;;;26.88;;
31836;SDS011;18401;49.344;6.240;2022-12-18T10:04:23;81.75;;;29.02;;
31836;SDS011;18401;49.344;6.240;2022-12-18T10:06:58;89.15;;;30.08;;
31836;SDS011;18401;49.344;6.240;2022-12-18T10:09:41;77.13;;;28.52;;
31836;SDS011;18401;49.344;6.240;2022-12-18T10:15:26;77.15;;;26.30;;
31836;SDS011;18401;49.344;6.240;2022-12-18T10:18:04;70.70;;;26.58;;
31836;SDS011;18401;49.344;6.240;2022-12-18T10:21:03;94.03;;;28.95;;
31836;SDS011;18401;49.344;6.240;2022-12-18T10:23:55;78.45;;;26.15;;
31836;SDS011;18401;49.344;6.240;2022-12-18T10:26:58;66.97;;;23.52;;
31836;SDS011;18401;49.344;6.240;2022-12-18T10:29:34;82.40;;;26.52;;
31836;SDS011;18401;49.344;6.240;2022-12-18T10:31:59;86.90;;;30.35;;
31836;SDS011;18401;49.344;6.240;2022-12-18T10:34:25;88.78;;;27.13;;
31836;SDS011;18401;49.344;6.240;2022-12-18T10:36:51;79.70;;;25.90;;
31836;SDS011;18401;49.344;6.240;2022-12-18T10:39:20;78.85;;;27.75;;
31836;SDS011;18401;49.344;6.240;2022-12-18T10:41:51;76.22;;;26.25;;
31836;SDS011;18401;49.344;6.240;2022-12-18T10:44:33;81.45;;;27.60;;
31836;SDS011;18401;49.344;6.240;2022-12-18T10:47:03;78.82;;;26.98;;
31836;SDS011;18401;49.344;6.240;2022-12-18T10:49:32;75.82;;;27.00;;
31836;SDS011;18401;49.344;6.240;2022-12-18T10:52:19;82.82;;;28.92;;
31836;SDS011;18401;49.344;6.240;2022-12-18T10:57:30;71.93;;;28.77;;
31836;SDS011;18401;49.344;6.240;2022-12-18T10:59:57;78.15;;;26.23;;
31836;SDS011;18401;49.344;6.240;2022-12-18T11:02:28;69.85;;;25.30;;
31836;SDS011;18401;49.344;6.240;2022-12-18T11:05:00;72.78;;;26.42;;
31836;SDS011;18401;49.344;6.240;2022-12-18T11:07:27;74.32;;;27.63;;
31836;SDS011;18401;49.344;6.240;2022-12-18T11:10:15;69.35;;;26.15;;
31836;SDS011;18401;49.344;6.240;2022-12-18T11:12:43;79.70;;;27.05;;
31836;SDS011;18401;49.344;6.240;2022-12-18T11:15:15;71.28;;;26.63;;
31836;SDS011;18401;49.344;6.240;2022-12-18T11:17:47;72.20;;;26.75;;
31836;SDS011;18401;49.344;6.240;2022-12-18T11:23:01;78.15;;;26.60;;
31836;SDS011;18401;49.344;6.240;2022-12-18T11:25:30;68.90;;;25.80;;
31836;SDS011;18401;49.344;6.240;2022-12-18T11:28:25;76.07;;;26.25;;
31836;SDS011;18401;49.344;6.240;2022-12-18T11:34:02;83.10;;;27.50;;
31836;SDS011;18401;49.344;6.240;2022-12-18T11:36:40;77.03;;;25.75;;
31836;SDS011;18401;49.344;6.240;2022-12-18T11:39:12;78.25;;;26.25;;
31836;SDS011;18401;49.344;6.240;2022-12-18T11:41:57;73.38;;;27.45;;
31836;SDS011;18401;49.344;6.240;2022-12-18T11:44:52;47.00;;;18.90;;
31836;SDS011;18401;49.344;6.240;2022-12-18T11:50:16;77.82;;;24.20;;
31836;SDS011;18401;49.344;6.240;2022-12-18T11:53:03;74.82;;;25.10;;
31836;SDS011;18401;49.344;6.240;2022-12-18T12:00:43;69.25;;;26.90;;
31836;SDS011;18401;49.344;6.240;2022-12-18T12:11:12;80.60;;;27.10;;
31836;SDS011;18401;49.344;6.240;2022-12-18T12:35:46;69.22;;;26.45;;
31836;SDS011;18401;49.344;6.240;2022-12-18T12:38:22;65.05;;;24.80;;
31836;SDS011;18401;49.344;6.240;2022-12-18T12:40:59;82.05;;;29.08;;
31836;SDS011;18401;49.344;6.240;2022-12-18T12:46:11;67.85;;;25.40;;
31836;SDS011;18401;49.344;6.240;2022-12-18T12:51:28;74.55;;;26.13;;
31836;SDS011;18401;49.344;6.240;2022-12-18T12:53:57;71.10;;;26.40;;
31836;SDS011;18401;49.344;6.240;2022-12-18T12:56:26;72.85;;;26.35;;
31836;SDS011;18401;49.344;6.240;2022-12-18T13:04:36;83.72;;;26.90;;
31836;SDS011;18401;49.344;6.240;2022-12-18T13:10:11;82.47;;;28.05;;
31836;SDS011;18401;49.344;6.240;2022-12-18T13:12:50;76.30;;;29.42;;
31836;SDS011;18401;49.344;6.240;2022-12-18T13:15:27;56.80;;;20.80;;
31836;SDS011;18401;49.344;6.240;2022-12-18T13:23:29;80.53;;;29.13;;
31836;SDS011;18401;49.344;6.240;2022-12-18T13:33:40;77.82;;;29.08;;
31836;SDS011;18401;49.344;6.240;2022-12-18T13:38:40;74.88;;;28.67;;
31836;SDS011;18401;49.344;6.240;2022-12-18T13:43:46;74.60;;;29.40;;
31836;SDS011;18401;49.344;6.240;2022-12-18T13:46:30;85.55;;;29.55;;
31836;SDS011;18401;49.344;6.240;2022-12-18T13:51:43;77.38;;;29.15;;
31836;SDS011;18401;49.344;6.240;2022-12-18T13:54:19;71.22;;;26.88;;
31836;SDS011;18401;49.344;6.240;2022-12-18T13:56:57;74.95;;;28.10;;
31836;SDS011;18401;49.344;6.240;2022-12-18T13:59:26;81.53;;;27.70;;
31836;SDS011;18401;49.344;6.240;2022-12-18T14:02:11;78.88;;;27.83;;
31836;SDS011;18401;49.344;6.240;2022-12-18T14:04:38;79.88;;;28.50;;
31836;SDS011;18401;49.344;6.240;2022-12-18T14:07:04;81.60;;;28.52;;
31836;SDS011;18401;49.344;6.240;2022-12-18T14:09:36;75.65;;;27.88;;
31836;SDS011;18401;49.344;6.240;2022-12-18T14:12:06;78.63;;;28.63;;
31836;SDS011;18401;49.344;6.240;2022-12-18T14:14:51;74.65;;;27.33;;
31836;SDS011;18401;49.344;6.240;2022-12-18T14:17:17;83.20;;;29.40;;
31836;SDS011;18401;49.344;6.240;2022-12-18T14:19:48;85.22;;;30.02;;
31836;SDS011;18401;49.344;6.240;2022-12-18T14:22:24;79.55;;;28.50;;
31836;SDS011;18401;49.344;6.240;2022-12-18T14:27:43;80.60;;;29.02;;
31836;SDS011;18401;49.344;6.240;2022-12-18T14:30:24;89.22;;;31.48;;
31836;SDS011;18401;49.344;6.240;2022-12-18T14:33:00;81.93;;;29.55;;
31836;SDS011;18401;49.344;6.240;2022-12-18T14:35:30;89.15;;;31.25;;
31836;SDS011;18401;49.344;6.240;2022-12-18T14:38:43;81.13;;;29.38;;
31836;SDS011;18401;49.344;6.240;2022-12-18T14:40:47;85.13;;;28.00;;
31836;SDS011;18401;49.344;6.240;2022-12-18T14:43:16;87.57;;;30.60;;
31836;SDS011;18401;49.344;6.240;2022-12-18T14:45:45;87.75;;;31.25;;
31836;SDS011;18401;49.344;6.240;2022-12-18T14:50:43;86.15;;;29.38;;
31836;SDS011;18401;49.344;6.240;2022-12-18T14:56:00;81.38;;;28.10;;
31836;SDS011;18401;49.344;6.240;2022-12-18T14:58:28;74.05;;;28.33;;
31836;SDS011;18401;49.344;6.240;2022-12-18T15:00:54;80.10;;;29.30;;
31836;SDS011;18401;49.344;6.240;2022-12-18T15:03:20;85.22;;;30.40;;
31836;SDS011;18401;49.344;6.240;2022-12-18T15:05:47;77.07;;;30.98;;
31836;SDS011;18401;49.344;6.240;2022-12-18T15:08:30;90.68;;;31.88;;
31836;SDS011;18401;49.344;6.240;2022-12-18T15:11:01;91.40;;;30.52;;
31836;SDS011;18401;49.344;6.240;2022-12-18T15:13:26;98.70;;;31.33;;
31836;SDS011;18401;49.344;6.240;2022-12-18T15:15:53;77.20;;;30.48;;
31836;SDS011;18401;49.344;6.240;2022-12-18T15:18:23;89.63;;;30.83;;
31836;SDS011;18401;49.344;6.240;2022-12-18T15:20:56;77.35;;;30.02;;
31836;SDS011;18401;49.344;6.240;2022-12-18T15:26:12;85.55;;;30.40;;
31836;SDS011;18401;49.344;6.240;2022-12-18T15:28:55;102.65;;;31.17;;
31836;SDS011;18401;49.344;6.240;2022-12-18T15:36:18;81.50;;;30.02;;
31836;SDS011;18401;49.344;6.240;2022-12-18T15:38:52;69.63;;;28.75;;
31836;SDS011;18401;49.344;6.240;2022-12-18T15:41:19;76.03;;;30.15;;
31836;SDS011;18401;49.344;6.240;2022-12-18T15:43:47;73.78;;;29.35;;
31836;SDS011;18401;49.344;6.240;2022-12-18T15:48:44;83.22;;;30.42;;
31836;SDS011;18401;49.344;6.240;2022-12-18T15:51:18;80.43;;;30.42;;
31836;SDS011;18401;49.344;6.240;2022-12-18T15:53:51;78.88;;;30.40;;
31836;SDS011;18401;49.344;6.240;2022-12-18T15:56:19;74.47;;;28.52;;
31836;SDS011;18401;49.344;6.240;2022-12-18T15:59:07;61.43;;;23.80;;
31836;SDS011;18401;49.344;6.240;2022-12-18T16:01:39;69.93;;;28.65;;
31836;SDS011;18401;49.344;6.240;2022-12-18T16:04:06;70.15;;;26.27;;
31836;SDS011;18401;49.344;6.240;2022-12-18T16:06:34;78.05;;;27.55;;
31836;SDS011;18401;49.344;6.240;2022-12-18T16:08:59;82.20;;;29.27;;
31836;SDS011;18401;49.344;6.240;2022-12-18T16:11:26;75.70;;;28.45;;
31836;SDS011;18401;49.344;6.240;2022-12-18T16:16:37;59.63;;;22.42;;
31836;SDS011;18401;49.344;6.240;2022-12-18T16:19:02;75.43;;;26.90;;
31836;SDS011;18401;49.344;6.240;2022-12-18T16:21:28;78.00;;;28.50;;
31836;SDS011;18401;49.344;6.240;2022-12-18T16:23:54;76.80;;;28.67;;
31836;SDS011;18401;49.344;6.240;2022-12-18T16:26:19;74.32;;;27.25;;
31836;SDS011;18401;49.344;6.240;2022-12-18T16:28:45;75.40;;;29.48;;
31836;SDS011;18401;49.344;6.240;2022-12-18T16:31:11;81.82;;;28.40;;
31836;SDS011;18401;49.344;6.240;2022-12-18T16:33:36;76.60;;;28.73;;
31836;SDS011;18401;49.344;6.240;2022-12-18T16:36:02;75.65;;;27.10;;
31836;SDS011;18401;49.344;6.240;2022-12-18T16:38:28;76.70;;;28.05;;
31836;SDS011;18401;49.344;6.240;2022-12-18T16:40:53;82.47;;;27.73;;
31836;SDS011;18401;49.344;6.240;2022-12-18T16:43:39;71.70;;;27.75;;
31836;SDS011;18401;49.344;6.240;2022-12-18T16:46:05;83.43;;;29.23;;
31836;SDS011;18401;49.344;6.240;2022-12-18T16:48:33;89.70;;;31.55;;
31836;SDS011;18401;49.344;6.240;2022-12-18T16:51:00;87.03;;;32.05;;
31836;SDS011;18401;49.344;6.240;2022-12-18T16:53:31;76.93;;;31.48;;
31836;SDS011;18401;49.344;6.240;2022-12-18T16:55:58;86.93;;;30.77;;